Terminal Aerodrome Forecast
Issued by NWS

Home | Current Version | Previous Version | Text Only | Print | Product List | Glossary On
Versions: 1 2 3 4 5 6 7 8 9 10 11 12 13 14 15
000
FTAK31 PANC 180541
TAFATK
TAF
PATK 180541Z 1806/1906 VRB03KT P6SM BKN050
     FM181000 VRB03KT P6SM VCFG SCT005
     FM182100 36005KT P6SM SKC=

USA.gov is the U.S. government's official web portal to all federal, state and local government web resources and services.